weather.gov     
National Weather Service

Terminal Aerodrome Forecast
NWS Homepage
This page is being discontinued on March 12, 2014.
The same data is available at this site. Please update your bookmarks.
Thank you, and we apologize for the inconvenience.
Please send an email to SR-SRH.Webmaster@noaa.gov with any concerns.


Current Version
Previous Version:    01  02  03  04  05  06  07  08  09  10  11  12  13  14  15  16  17  18  19  20  21  22  23  24  25  26  27  28  29  30  
   31  32  33  34  35  36  37  38  39  40  41  
[Printable]
465
FTUS43 KFSD 230259 AAA
TAFSUX
TAF AMD
KSUX 230259Z 2303/2324 33009KT P6SM -RA BKN008
      TEMPO 2303/2307 5SM -RA BR SCT008 OVC015
     FM230700 33012KT 5SM -SN OVC009
     FM231200 34014KT 4SM -SN OVC007
     FM231500 33018G25KT 4SM -SN OVC008
     FM232000 33020G28KT 6SM -SN OVC012=


465
FTUS43 KFSD 230259 AAA
TAFSUX
TAF AMD
KSUX 230259Z 2303/2324 33009KT P6SM -RA BKN008
      TEMPO 2303/2307 5SM -RA BR SCT008 OVC015
     FM230700 33012KT 5SM -SN OVC009
     FM231200 34014KT 4SM -SN OVC007
     FM231500 33018G25KT 4SM -SN OVC008
     FM232000 33020G28KT 6SM -SN OVC012=




U.S. Dept. of Commerce
NOAA National Weather Service
1325 East West Highway
Silver Spring, MD 20910
E-mail: w-nws.webmaster@noaa.gov
Page last modified: May 16, 2007
NATIONAL WEATHER SERVICE: for Safety, for Work, for Fun - FOR LIFE